createdAt,value
2023-02-09T04:31:14.706Z,71.00
2023-02-09T04:41:50.517Z,70.60
2023-02-09T04:52:26.281Z,75.90
2023-02-09T05:03:01.969Z,81.00
2023-02-09T05:13:37.909Z,80.60
2023-02-09T05:24:13.766Z,86.60
2023-02-09T05:34:49.543Z,85.90
2023-02-09T05:45:25.423Z,90.80
2023-02-09T05:56:01.034Z,90.90
2023-02-09T06:06:37.024Z,93.80
2023-02-09T06:17:12.390Z,96.40
2023-02-09T06:27:47.849Z,91.30
2023-02-09T06:38:23.885Z,92.20
2023-02-09T06:48:59.659Z,95.30
2023-02-09T06:59:35.368Z,98.40
2023-02-09T07:10:13.206Z,99.90
2023-02-09T07:20:56.977Z,96.70
2023-02-09T07:31:32.699Z,90.50
2023-02-09T07:42:09.411Z,28.00
2023-02-09T07:52:57.674Z,18.40
2023-02-09T08:03:36.184Z,20.70
2023-02-09T08:14:20.497Z,8.60
2023-02-09T08:24:57.044Z,4.50
2023-02-09T08:35:32.835Z,1.20
2023-02-09T08:46:10.850Z,1.00
2023-02-09T08:56:46.533Z,1.00
2023-02-09T09:07:22.280Z,1.00
2023-02-09T09:17:57.867Z,1.00
2023-02-09T09:28:33.234Z,1.00
2023-02-09T09:39:08.899Z,1.00
2023-02-09T09:49:44.944Z,1.00
2023-02-09T10:00:27.744Z,1.00
2023-02-09T10:11:05.921Z,1.00
2023-02-09T10:21:41.623Z,1.00
2023-02-09T10:32:25.626Z,1.00
2023-02-09T10:43:03.912Z,1.00
2023-02-09T10:53:56.850Z,1.00
2023-02-09T11:04:40.888Z,1.00
2023-02-09T11:15:23.518Z,1.00
2023-02-09T11:26:25.378Z,2.60
2023-02-09T11:37:20.216Z,6.60
2023-02-09T11:48:04.633Z,8.30
2023-02-09T11:58:57.280Z,10.50
2023-02-09T12:09:48.710Z,11.10
2023-02-09T12:20:55.735Z,12.50
2023-02-09T12:31:52.138Z,13.60
2023-02-09T12:42:37.699Z,15.20
2023-02-09T12:53:22.744Z,16.20
2023-02-09T13:04:06.809Z,15.10
2023-02-09T13:14:49.647Z,15.00
2023-02-09T13:25:29.857Z,15.20
2023-02-09T13:36:24.679Z,15.20
2023-02-09T13:47:06.405Z,15.60
2023-02-09T13:57:44.841Z,14.80
2023-02-09T14:08:22.143Z,15.00
2023-02-09T14:18:59.981Z,15.00
2023-02-09T14:29:37.996Z,15.30
2023-02-09T14:40:30.673Z,15.10
2023-02-09T14:51:17.048Z,14.90
2023-02-09T15:01:54.570Z,15.40
2023-02-09T15:12:30.237Z,14.30
2023-02-09T15:23:06.050Z,16.40
2023-02-09T15:33:41.553Z,16.90
2023-02-09T15:44:38.018Z,15.60
2023-02-09T15:55:19.784Z,16.70
2023-02-09T16:06:07.122Z,19.60
2023-02-09T16:16:44.550Z,21.90
2023-02-09T16:27:25.486Z,25.20
2023-02-09T16:38:00.981Z,27.60
2023-02-09T16:48:40.267Z,28.80
2023-02-09T16:59:16.105Z,26.90
2023-02-09T17:09:51.805Z,29.90
2023-02-09T17:20:32.210Z,33.80
2023-02-09T17:31:20.757Z,35.90
2023-02-09T17:41:56.489Z,39.10
2023-02-09T17:52:32.173Z,41.70
2023-02-09T18:03:11.122Z,41.60
2023-02-09T18:13:46.859Z,44.70
2023-02-09T18:24:25.257Z,46.10
2023-02-09T18:35:02.097Z,45.90
2023-02-09T18:45:37.658Z,48.80
2023-02-09T18:56:21.755Z,53.10
2023-02-09T19:06:58.254Z,54.70
2023-02-09T19:17:34.538Z,53.20
2023-02-09T19:28:11.221Z,53.90
2023-02-09T19:38:46.824Z,55.30
2023-02-09T19:49:23.020Z,52.90
2023-02-09T19:59:59.059Z,51.80
2023-02-09T20:10:35.202Z,50.70
2023-02-09T20:21:10.624Z,49.50
2023-02-09T20:31:46.180Z,52.60
2023-02-09T20:42:40.272Z,56.10
2023-02-09T20:53:17.201Z,57.80
2023-02-09T21:03:54.862Z,60.80
2023-02-09T21:14:41.568Z,67.70
2023-02-09T21:25:21.721Z,72.60
2023-02-09T21:35:58.332Z,70.90
2023-02-09T21:46:34.410Z,76.30
2023-02-09T21:57:10.227Z,77.30
2023-02-09T22:07:48.098Z,79.00
2023-02-09T22:18:24.192Z,86.20
2023-02-09T22:29:00.240Z,87.80
